createdAt,value
2024-04-07T07:23:39.576Z,53.67
2024-04-07T07:26:14.527Z,52.53
2024-04-07T07:28:44.338Z,51.55
2024-04-07T07:31:12.865Z,51.08
2024-04-07T07:33:41.478Z,50.29
2024-04-07T07:36:10.573Z,50.10
2024-04-07T07:38:38.925Z,49.82
2024-04-07T07:41:08.116Z,49.26
2024-04-07T07:43:36.547Z,49.30
2024-04-07T07:46:04.905Z,48.84
2024-04-07T07:48:35.690Z,48.37
2024-04-07T07:51:12.452Z,48.36
2024-04-07T07:53:41.343Z,47.68
2024-04-07T07:56:10.367Z,47.13
2024-04-07T07:58:40.075Z,47.40
2024-04-07T08:01:08.565Z,46.83
2024-04-07T08:03:38.476Z,47.03
2024-04-07T08:06:07.654Z,45.73
2024-04-07T08:08:45.190Z,45.05
2024-04-07T08:11:13.555Z,44.62
2024-04-07T08:13:41.956Z,45.15
2024-04-07T08:16:11.802Z,46.16
2024-04-07T08:18:41.857Z,45.62
2024-04-07T08:21:11.868Z,45.20
2024-04-07T08:23:40.369Z,44.94
2024-04-07T08:26:08.726Z,44.80
2024-04-07T08:28:37.054Z,44.44
2024-04-07T08:31:05.346Z,45.09
2024-04-07T08:33:33.686Z,44.74
2024-04-07T08:36:01.981Z,43.95
2024-04-07T08:38:32.082Z,43.32
2024-04-07T08:41:02.466Z,43.04
2024-04-07T08:43:31.208Z,43.51
2024-04-07T08:46:00.130Z,43.30
2024-04-07T08:48:30.151Z,43.11
2024-04-07T08:51:01.989Z,42.33
2024-04-07T08:53:30.278Z,42.23
2024-04-07T08:55:59.819Z,41.89
2024-04-07T08:58:28.758Z,42.10
2024-04-07T09:01:00.332Z,41.55
2024-04-07T09:03:30.731Z,41.34
2024-04-07T09:05:59.405Z,40.82
2024-04-07T09:08:28.167Z,40.93
2024-04-07T09:10:56.411Z,40.13
2024-04-07T09:13:24.665Z,39.79
2024-04-07T09:15:53.659Z,40.39
2024-04-07T09:18:25.205Z,39.97
2024-04-07T09:20:53.382Z,39.77
2024-04-07T09:23:25.943Z,39.37
2024-04-07T09:25:54.428Z,39.94
2024-04-07T09:28:22.732Z,39.45
2024-04-07T09:30:51.075Z,38.91
2024-04-07T09:33:21.579Z,38.28
2024-04-07T09:35:49.815Z,38.16
2024-04-07T09:38:18.035Z,38.76
2024-04-07T09:40:48.006Z,38.88
2024-04-07T09:43:17.242Z,38.92
2024-04-07T09:45:49.832Z,38.03
2024-04-07T09:48:21.628Z,38.36
2024-04-07T09:50:58.889Z,37.78
2024-04-07T09:53:42.171Z,38.03
2024-04-07T09:56:12.975Z,37.96
2024-04-07T09:58:41.824Z,38.73
2024-04-07T10:01:11.135Z,38.65
2024-04-07T10:03:40.402Z,39.23
2024-04-07T10:06:09.375Z,38.96
2024-04-07T10:08:39.134Z,38.30
2024-04-07T10:11:16.380Z,38.70
2024-04-07T10:13:46.404Z,39.05
2024-04-07T10:16:15.145Z,39.35
2024-04-07T10:18:45.004Z,39.52
2024-04-07T10:21:13.813Z,39.12
2024-04-07T10:23:46.665Z,38.62
2024-04-07T10:26:18.693Z,37.58
2024-04-07T10:28:57.451Z,36.92
2024-04-07T10:31:30.584Z,37.34
2024-04-07T10:33:58.851Z,37.33
2024-04-07T10:36:30.718Z,37.48
2024-04-07T10:38:59.363Z,37.43
2024-04-07T10:41:31.897Z,37.47
2024-04-07T10:44:01.970Z,36.48
2024-04-07T10:46:32.514Z,36.77
2024-04-07T10:49:01.992Z,36.85
2024-04-07T10:51:30.390Z,37.68
2024-04-07T10:54:06.507Z,38.18
2024-04-07T10:56:35.525Z,38.12
2024-04-07T10:59:04.160Z,37.53
2024-04-07T11:01:32.802Z,37.45
2024-04-07T11:04:01.160Z,36.34
2024-04-07T11:06:29.641Z,36.28
2024-04-07T11:08:59.209Z,35.35
2024-04-07T11:11:27.594Z,35.00
2024-04-07T11:13:59.597Z,34.42
2024-04-07T11:16:28.434Z,35.03
2024-04-07T11:18:57.656Z,35.11
2024-04-07T11:21:27.867Z,35.80
2024-04-07T11:23:56.914Z,35.42
2024-04-07T11:26:29.516Z,35.05
2024-04-07T11:29:00.078Z,34.90
2024-04-07T11:31:30.899Z,34.44
2024-04-07T11:34:00.280Z,33.92
2024-04-07T11:36:28.855Z,33.17
2024-04-07T11:38:57.633Z,33.16
2024-04-07T11:41:25.868Z,33.54
2024-04-07T11:43:54.864Z,33.94
2024-04-07T11:46:24.295Z,32.80
2024-04-07T11:48:52.465Z,32.47
2024-04-07T11:51:20.647Z,32.07
2024-04-07T11:53:49.934Z,32.17
2024-04-07T11:56:19.484Z,32.30
2024-04-07T11:58:48.161Z,31.91
2024-04-07T12:01:16.436Z,32.64
2024-04-07T12:03:45.177Z,31.90
2024-04-07T12:06:15.723Z,30.74
2024-04-07T12:08:44.605Z,30.54
2024-04-07T12:11:15.792Z,29.99
2024-04-07T12:13:44.635Z,29.87
2024-04-07T12:16:13.375Z,30.26
2024-04-07T12:18:41.611Z,30.22
2024-04-07T12:21:11.432Z,29.87
2024-04-07T12:23:39.716Z,29.66
2024-04-07T12:26:09.820Z,29.18
2024-04-07T12:28:39.531Z,29.87
2024-04-07T12:31:10.334Z,29.18
2024-04-07T12:33:39.154Z,29.58
2024-04-07T12:36:08.617Z,29.24
2024-04-07T12:38:36.884Z,29.48
2024-04-07T12:41:06.662Z,29.64
2024-04-07T12:43:35.452Z,29.69
2024-04-07T12:46:04.890Z,29.67
2024-04-07T12:48:36.448Z,29.72
2024-04-07T12:51:06.031Z,29.99
2024-04-07T12:53:34.179Z,29.90
2024-04-07T12:56:02.489Z,30.21
2024-04-07T12:58:31.218Z,30.44
2024-04-07T13:01:06.997Z,30.71
2024-04-07T13:03:36.472Z,31.59
2024-04-07T13:06:06.392Z,31.30
2024-04-07T13:08:34.608Z,31.15
2024-04-07T13:11:04.166Z,31.21
2024-04-07T13:13:34.078Z,30.85
2024-04-07T13:16:02.824Z,31.39
2024-04-07T13:18:33.087Z,31.19
2024-04-07T13:21:01.294Z,30.94
2024-04-07T13:23:29.682Z,31.17
2024-04-07T13:25:58.430Z,30.98
2024-04-07T13:28:26.688Z,30.91
2024-04-07T13:30:56.212Z,31.99
2024-04-07T13:33:26.029Z,31.18
2024-04-07T13:35:54.474Z,31.38
2024-04-07T13:38:22.706Z,31.22
2024-04-07T13:40:58.309Z,30.26
2024-04-07T13:43:27.546Z,29.36
2024-04-07T13:45:55.769Z,29.47
2024-04-07T13:48:24.801Z,30.27
2024-04-07T13:50:59.390Z,30.50
2024-04-07T13:53:28.905Z,30.46
2024-04-07T13:55:57.568Z,31.23
2024-04-07T13:58:25.822Z,29.54
2024-04-07T14:00:55.671Z,30.02
2024-04-07T14:03:24.177Z,29.62
2024-04-07T14:05:53.272Z,30.07
2024-04-07T14:08:21.598Z,30.39
2024-04-07T14:10:50.355Z,29.54
2024-04-07T14:13:18.735Z,29.71
2024-04-07T14:15:47.192Z,29.89
2024-04-07T14:18:16.472Z,30.80
2024-04-07T14:20:45.160Z,31.20
2024-04-07T14:23:13.980Z,30.45
2024-04-07T14:25:43.570Z,30.43
2024-04-07T14:28:12.251Z,30.51
2024-04-07T14:30:40.480Z,31.32
2024-04-07T14:33:08.734Z,31.22
2024-04-07T14:35:37.088Z,31.65
2024-04-07T14:38:06.053Z,31.55
2024-04-07T14:40:34.806Z,31.26
2024-04-07T14:43:03.054Z,31.06
2024-04-07T14:45:31.391Z,31.73
2024-04-07T14:48:00.480Z,31.91
2024-04-07T14:50:29.025Z,31.11
2024-04-07T14:52:57.334Z,29.75
2024-04-07T14:55:26.135Z,29.11
2024-04-07T14:57:57.799Z,29.23
2024-04-07T15:00:26.026Z,28.47
2024-04-07T15:02:54.860Z,27.30
2024-04-07T15:05:23.220Z,27.78
2024-04-07T15:07:51.850Z,27.63
2024-04-07T15:10:21.074Z,27.86
2024-04-07T15:12:49.399Z,27.91
2024-04-07T15:15:18.122Z,28.26
2024-04-07T15:17:47.180Z,28.03
2024-04-07T15:20:15.500Z,28.21
2024-04-07T15:22:46.677Z,28.26
2024-04-07T15:25:15.009Z,28.90
2024-04-07T15:27:43.640Z,28.76
2024-04-07T15:30:12.112Z,28.88
2024-04-07T15:32:41.123Z,29.19
2024-04-07T15:35:09.748Z,29.35
2024-04-07T15:37:39.136Z,28.95
2024-04-07T15:40:08.481Z,29.43
2024-04-07T15:42:38.153Z,29.06
2024-04-07T15:45:06.570Z,29.13
2024-04-07T15:47:35.655Z,29.27
2024-04-07T15:50:04.391Z,29.10
2024-04-07T15:52:32.674Z,30.15
2024-04-07T15:55:01.014Z,30.97
2024-04-07T15:57:29.546Z,31.41
2024-04-07T15:59:58.424Z,31.38
2024-04-07T16:02:26.821Z,31.36
2024-04-07T16:04:55.194Z,31.63
2024-04-07T16:07:23.578Z,31.91
2024-04-07T16:09:52.566Z,31.56
2024-04-07T16:12:20.814Z,30.96
2024-04-07T16:14:49.102Z,30.57
2024-04-07T16:17:18.071Z,30.37
2024-04-07T16:19:47.440Z,30.80
2024-04-07T16:22:16.264Z,31.43
2024-04-07T16:24:44.554Z,31.89
2024-04-07T16:27:13.128Z,31.60
2024-04-07T16:29:42.165Z,31.30
2024-04-07T16:32:11.309Z,31.10
2024-04-07T16:34:41.117Z,30.92
2024-04-07T16:37:09.521Z,30.87
2024-04-07T16:39:38.939Z,31.06
2024-04-07T16:42:07.958Z,30.94
2024-04-07T16:44:36.688Z,31.46
2024-04-07T16:47:05.697Z,31.50
2024-04-07T16:49:33.930Z,31.75
2024-04-07T16:52:02.200Z,32.71
2024-04-07T16:54:31.328Z,33.07
2024-04-07T16:57:03.695Z,34.18
2024-04-07T16:59:32.899Z,34.94
2024-04-07T17:02:01.385Z,34.95
2024-04-07T17:04:29.813Z,35.25
2024-04-07T17:06:58.174Z,35.04
2024-04-07T17:09:26.553Z,35.69
2024-04-07T17:11:54.837Z,37.58
2024-04-07T17:14:24.694Z,37.35
2024-04-07T17:16:53.024Z,37.36
2024-04-07T17:19:21.332Z,37.82
2024-04-07T17:21:49.750Z,38.68
2024-04-07T17:24:17.952Z,39.16
2024-04-07T17:26:46.687Z,38.90
2024-04-07T17:29:15.723Z,40.00
2024-04-07T17:31:44.542Z,40.69
2024-04-07T17:34:14.371Z,40.50
2024-04-07T17:36:49.365Z,40.66
2024-04-07T17:39:31.940Z,40.41
2024-04-07T17:42:00.894Z,40.31
2024-04-07T17:44:29.312Z,40.88
2024-04-07T17:46:58.996Z,40.99
2024-04-07T17:49:30.551Z,40.06
2024-04-07T17:51:59.409Z,40.63
2024-04-07T17:54:28.555Z,41.15
2024-04-07T17:56:58.150Z,41.81
2024-04-07T17:59:28.636Z,42.58
2024-04-07T18:01:57.212Z,43.24
2024-04-07T18:04:25.845Z,44.01
2024-04-07T18:06:54.317Z,44.83
2024-04-07T18:09:22.593Z,45.48
2024-04-07T18:11:51.672Z,45.23
2024-04-07T18:14:24.377Z,45.75
2024-04-07T18:16:54.025Z,45.98
2024-04-07T18:19:23.868Z,45.49
2024-04-07T18:21:52.177Z,45.35
2024-04-07T18:24:20.494Z,44.84
2024-04-07T18:26:50.595Z,44.73
2024-04-07T18:29:18.993Z,46.20
2024-04-07T18:31:47.318Z,47.56
2024-04-07T18:34:16.691Z,48.40
2024-04-07T18:36:45.596Z,48.60
2024-04-07T18:39:16.377Z,48.45
2024-04-07T18:41:48.477Z,48.02
2024-04-07T18:44:21.066Z,48.14
2024-04-07T18:46:52.916Z,48.53
2024-04-07T18:49:22.946Z,48.46
2024-04-07T18:51:54.155Z,48.05
2024-04-07T18:54:40.852Z,48.64
2024-04-07T18:57:11.682Z,49.58
2024-04-07T18:59:42.202Z,49.25
2024-04-07T19:02:22.267Z,51.10
2024-04-07T19:04:51.024Z,51.04
2024-04-07T19:07:24.411Z,51.31
2024-04-07T19:09:52.941Z,52.32
2024-04-07T19:12:22.915Z,52.82
2024-04-07T19:14:53.886Z,51.76
2024-04-07T19:17:22.673Z,51.70
2024-04-07T19:20:00.126Z,52.42
2024-04-07T19:22:32.206Z,52.81
2024-04-07T19:25:08.794Z,53.10
2024-04-07T19:27:40.829Z,52.39
2024-04-07T19:30:28.779Z,51.80
2024-04-07T19:33:01.390Z,52.39
2024-04-07T19:35:55.111Z,52.46
2024-04-07T19:38:27.343Z,52.27
2024-04-07T19:41:04.312Z,52.54
2024-04-07T19:43:45.703Z,53.77
2024-04-07T19:46:41.434Z,53.34
2024-04-07T19:49:30.411Z,52.66
2024-04-07T19:53:11.762Z,52.68
2024-04-07T19:55:55.595Z,53.13
2024-04-07T19:58:45.016Z,54.62
2024-04-07T20:01:36.088Z,56.13
2024-04-07T20:04:46.558Z,57.30
2024-04-07T20:08:06.399Z,57.11
2024-04-07T20:11:24.730Z,56.38
